Time;durP1;ratioP1;P1;durP2;ratioP2;P2;SDS_P1;SDS_P2;PMS_P1;PMS_P2;Temp;Humidity;BMP_temperature;BMP_pressure;BME280_temperature;BME280_humidity;BME280_pressure;Samples;Min_cycle;Max_cycle;Signal;HPM_P1;HPM_P2
2021/09/01 00:01:54;;;;;;;;;67.00;50.00;;;;;17.52;62.57;101874.88;5098008;27;69674;-60
2021/09/01 00:04:19;;;;;;;;;76.75;58.75;;;;;17.48;62.87;101875.16;5098884;27;45282;-60
2021/09/01 00:06:44;;;;;;;;;72.25;51.00;;;;;17.41;63.08;101886.53;5097713;27;75234;-60
2021/09/01 00:09:10;;;;;;;;;66.00;47.50;;;;;17.38;62.95;101885.00;5097735;27;74180;-60
2021/09/01 00:11:35;;;;;;;;;63.50;47.00;;;;;17.35;63.25;101880.84;5080107;27;51730;-60
2021/09/01 00:14:01;;;;;;;;;65.50;49.50;;;;;17.31;63.50;101886.56;5098888;27;45366;-60
2021/09/01 00:16:27;;;;;;;;;71.00;52.50;;;;;17.27;63.61;101878.06;5080348;27;45256;-60
2021/09/01 00:18:53;;;;;;;;;73.50;54.00;;;;;17.25;63.62;101885.34;5097584;27;45245;-59
2021/09/01 00:21:19;;;;;;;;;69.75;49.75;;;;;17.23;63.92;101887.31;5098324;27;45437;-60
2021/09/01 00:23:44;;;;;;;;;64.75;49.00;;;;;17.18;64.14;101884.25;5097974;27;58096;-60
2021/09/01 00:26:10;;;;;;;;;65.75;50.25;;;;;17.18;64.05;101881.59;5097668;27;70867;-59
2021/09/01 00:28:35;;;;;;;;;70.00;50.50;;;;;17.14;63.87;101870.44;5097506;27;70469;-60
2021/09/01 00:31:00;;;;;;;;;57.00;42.50;;;;;17.08;64.25;101879.00;5097438;27;67572;-60
2021/09/01 00:33:26;;;;;;;;;52.25;41.25;;;;;17.06;64.32;101870.34;5098515;27;45305;-60
2021/09/01 00:35:51;;;;;;;;;57.25;43.50;;;;;17.03;64.41;101874.13;5098168;27;46773;-60
2021/09/01 00:38:16;;;;;;;;;48.00;37.50;;;;;17.00;64.49;101870.94;5097507;27;65034;-60
2021/09/01 00:40:42;;;;;;;;;53.25;41.00;;;;;16.99;64.65;101877.22;5097350;27;69535;-60
2021/09/01 00:43:07;;;;;;;;;48.25;37.75;;;;;16.96;64.76;101875.66;5097448;27;66590;-60
2021/09/01 00:45:33;;;;;;;;;46.50;32.00;;;;;16.93;64.89;101878.63;5079715;27;48630;-60
2021/09/01 00:47:58;;;;;;;;;37.00;32.75;;;;;16.90;64.78;101882.38;5098137;27;45459;-60
2021/09/01 00:50:25;;;;;;;;;41.50;33.75;;;;;16.87;65.13;101884.50;5097239;27;69691;-59
2021/09/01 00:52:50;;;;;;;;;52.50;36.50;;;;;16.86;65.16;101883.66;5098069;27;45322;-60
2021/09/01 00:55:16;;;;;;;;;49.50;38.75;;;;;16.83;65.00;101886.59;5061651;27;72985;-60
2021/09/01 00:57:41;;;;;;;;;38.50;33.25;;;;;16.82;65.30;101884.09;5061867;27;66815;-60
2021/09/01 01:00:08;;;;;;;;;51.50;40.25;;;;;16.80;65.27;101894.00;5097922;27;45393;-60
2021/09/01 01:02:33;;;;;;;;;45.50;34.25;;;;;16.75;65.36;101892.63;5079986;27;45250;-60
2021/09/01 01:04:58;;;;;;;;;46.00;36.00;;;;;16.73;65.53;101886.63;5096743;27;74458;-61
2021/09/01 01:07:24;;;;;;;;;48.00;38.50;;;;;16.73;65.70;101888.44;5096916;27;73380;-60
2021/09/01 01:09:49;;;;;;;;;54.25;40.25;;;;;16.70;65.62;101878.94;5097812;27;45189;-60
2021/09/01 01:12:20;;;;;;;;;50.00;39.25;;;;;16.68;65.56;101878.25;5097714;27;45272;-60
2021/09/01 01:14:47;;;;;;;;;48.75;38.00;;;;;16.66;65.91;101884.69;5079183;27;46364;-60
2021/09/01 01:17:14;;;;;;;;;37.00;31.00;;;;;16.64;65.51;101887.47;5097129;27;45231;-61
2021/09/01 01:19:40;;;;;;;;;42.25;31.75;;;;;16.61;65.83;101893.06;5097860;27;45438;-60
2021/09/01 01:22:06;;;;;;;;;35.25;27.00;;;;;16.59;66.19;101882.63;5097436;27;45583;-61
2021/09/01 01:24:48;;;;;;;;;34.25;27.00;;;;;16.57;65.83;101878.41;5097486;27;46346;-60
2021/09/01 01:27:21;;;;;;;;;36.75;30.75;;;;;16.58;66.16;101885.41;5097495;27;45839;-60
2021/09/01 01:29:46;;;;;;;;;37.50;26.75;;;;;16.55;65.96;101875.06;5097601;27;45319;-60
2021/09/01 01:32:12;;;;;;;;;30.50;28.00;;;;;16.50;66.24;101875.50;5096788;27;55037;-60
2021/09/01 01:34:37;;;;;;;;;28.00;23.25;;;;;16.47;66.35;101867.81;5096462;27;45358;-59
2021/09/01 01:37:09;;;;;;;;;31.50;24.50;;;;;16.47;66.03;101870.47;5096966;27;56333;-60
2021/09/01 01:39:34;;;;;;;;;23.50;21.25;;;;;16.48;66.14;101864.19;5079459;27;45316;-60
2021/09/01 01:41:59;;;;;;;;;27.25;24.00;;;;;16.48;66.10;101866.84;5096593;27;63895;-60
2021/09/01 01:44:25;;;;;;;;;29.25;24.25;;;;;16.44;66.25;101865.47;5078122;27;68973;-60
2021/09/01 01:46:50;;;;;;;;;24.50;23.25;;;;;16.40;66.57;101864.06;5096216;27;73206;-59
2021/09/01 01:49:17;;;;;;;;;23.75;22.50;;;;;16.36;66.82;101865.31;5096481;27;64670;-60
2021/09/01 01:51:49;;;;;;;;;33.25;27.50;;;;;16.31;66.59;101869.22;5096753;27;45370;-60
2021/09/01 01:54:15;;;;;;;;;27.00;22.00;;;;;16.27;66.83;101874.97;5096774;27;53097;-60
2021/09/01 01:56:40;;;;;;;;;22.50;21.25;;;;;16.24;66.90;101875.25;5096045;27;73201;-59
2021/09/01 01:59:05;;;;;;;;;24.25;23.75;;;;;16.17;67.06;101875.81;5096201;27;69919;-60
2021/09/01 02:01:31;;;;;;;;;30.25;26.50;;;;;16.13;67.29;101871.75;5096432;27;59358;-60
2021/09/01 02:03:56;;;;;;;;;36.50;27.00;;;;;16.11;67.20;101875.53;5096041;27;72624;-61
2021/09/01 02:06:21;;;;;;;;;31.00;26.00;;;;;16.08;67.27;101867.88;5095855;27;72179;-60
2021/09/01 02:08:47;;;;;;;;;28.00;25.00;;;;;16.05;67.38;101871.63;5095979;27;69095;-60
2021/09/01 02:11:12;;;;;;;;;33.75;26.50;;;;;16.04;67.69;101874.44;5077643;27;69223;-60
2021/09/01 02:13:37;;;;;;;;;27.25;25.00;;;;;16.01;67.74;101875.53;5077470;27;75223;-60
2021/09/01 02:16:03;;;;;;;;;30.50;25.50;;;;;16.00;67.59;101877.34;5095933;27;67707;-60
2021/09/01 02:18:28;;;;;;;;;34.25;30.75;;;;;15.96;67.78;101878.59;5096558;27;49118;-60
2021/09/01 02:20:54;;;;;;;;;47.25;39.00;;;;;15.93;67.67;101889.47;5096651;27;45190;-60
2021/09/01 02:23:19;;;;;;;;;58.75;45.75;;;;;15.92;68.12;101882.50;5095757;27;70410;-60
2021/09/01 02:25:44;;;;;;;;;55.00;41.75;;;;;15.89;68.00;101884.59;5095862;27;66436;-59
2021/09/01 02:28:10;;;;;;;;;63.50;47.50;;;;;15.91;68.00;101879.97;5096142;27;59918;-60
2021/09/01 02:30:36;;;;;;;;;68.50;50.75;;;;;15.89;68.04;101881.97;5100291;27;45603;-60
2021/09/01 02:33:01;;;;;;;;;83.50;63.25;;;;;15.90;68.20;101888.94;5098995;27;68837;-60
2021/09/01 02:35:27;;;;;;;;;83.25;66.00;;;;;15.88;68.42;101883.75;5099730;27;45424;-60
2021/09/01 02:37:52;;;;;;;;;89.25;72.50;;;;;15.92;68.30;101879.00;5100350;27;45905;-60
2021/09/01 02:40:19;;;;;;;;;86.00;69.50;;;;;15.94;67.92;101885.84;5100253;27;45492;-60
2021/09/01 02:42:44;;;;;;;;;85.50;70.25;;;;;15.96;67.96;101883.06;5099850;27;45950;-61
2021/09/01 02:45:10;;;;;;;;;94.75;78.25;;;;;15.97;67.94;101890.03;5099643;27;59428;-60
2021/09/01 02:47:35;;;;;;;;;109.25;91.25;;;;;15.98;67.85;101883.75;5099228;27;65844;-60
2021/09/01 02:50:03;;;;;;;;;114.25;87.50;;;;;15.99;67.87;101888.06;5099803;27;47268;-60
2021/09/01 02:52:28;;;;;;;;;119.75;90.50;;;;;15.99;67.96;101888.06;5099560;27;54574;-60
2021/09/01 02:54:54;;;;;;;;;105.00;88.25;;;;;15.97;67.92;101882.06;5099233;27;64129;-59
2021/09/01 02:57:19;;;;;;;;;105.50;88.75;;;;;15.98;68.09;101881.09;5099947;27;45264;-59
2021/09/01 02:59:45;;;;;;;;;108.25;92.00;;;;;15.99;67.95;101890.72;5098998;27;68497;-60
2021/09/01 03:02:10;;;;;;;;;101.00;87.75;;;;;16.02;68.21;101877.19;5099028;27;68246;-60
2021/09/01 03:04:35;;;;;;;;;116.50;95.75;;;;;16.04;67.91;101879.72;5099827;27;45346;-60
2021/09/01 03:07:01;;;;;;;;;94.75;78.00;;;;;16.04;68.09;101880.53;5099047;27;45330;-60
2021/09/01 03:09:26;;;;;;;;;83.50;62.25;;;;;16.01;67.75;101883.47;5099531;27;47061;-59
2021/09/01 03:11:52;;;;;;;;;82.50;69.75;;;;;16.01;67.95;101889.63;5099426;27;46085;-60
2021/09/01 03:14:17;;;;;;;;;84.25;62.25;;;;;16.02;67.79;101882.50;5098501;27;73198;-61
2021/09/01 03:16:42;;;;;;;;;83.50;65.25;;;;;16.00;67.81;101897.72;5099025;27;58396;-60
2021/09/01 03:19:08;;;;;;;;;81.00;59.00;;;;;15.95;68.18;101895.47;5099593;27;45530;-60
2021/09/01 03:21:33;;;;;;;;;81.25;62.75;;;;;15.95;67.88;101899.94;5097768;27;67558;-60
2021/09/01 03:23:58;;;;;;;;;82.25;63.75;;;;;15.96;68.17;101891.00;5097304;27;70704;-59
2021/09/01 03:26:26;;;;;;;;;76.00;56.00;;;;;15.98;68.39;101891.69;5098247;27;46333;-59
2021/09/01 03:28:52;;;;;;;;;71.00;52.50;;;;;15.99;68.31;101888.06;5098511;27;45335;-60
2021/09/01 03:31:17;;;;;;;;;66.00;48.75;;;;;15.97;68.10;101879.44;5098021;27;46057;-60
2021/09/01 03:33:43;;;;;;;;;63.00;48.50;;;;;16.00;68.17;101882.66;5097516;27;65546;-60
2021/09/01 03:36:08;;;;;;;;;54.75;40.00;;;;;16.03;68.09;101878.88;5097374;27;64685;-60
2021/09/01 03:38:33;;;;;;;;;50.25;37.25;;;;;16.08;67.95;101881.13;5097606;27;59020;-60
2021/09/01 03:40:59;;;;;;;;;38.00;33.25;;;;;16.08;67.57;101881.13;5096645;27;75794;-60
2021/09/01 03:43:24;;;;;;;;;29.75;24.25;;;;;16.09;67.74;101874.84;5097241;27;69136;-60
2021/09/01 03:45:51;;;;;;;;;28.25;23.00;;;;;16.08;67.57;101866.03;5097146;27;69377;-60
2021/09/01 03:48:17;;;;;;;;;24.75;23.75;;;;;16.11;67.76;101871.06;5097985;27;45422;-60
2021/09/01 03:50:42;;;;;;;;;29.50;25.50;;;;;16.11;67.64;101879.03;5096635;27;76619;-60
2021/09/01 03:53:07;;;;;;;;;26.25;17.50;;;;;16.12;67.63;101874.56;5078732;27;70748;-60
2021/09/01 03:55:33;;;;;;;;;23.75;21.75;;;;;16.10;67.35;101874.69;5098070;27;45276;-60
2021/09/01 03:57:58;;;;;;;;;30.25;23.25;;;;;16.09;67.14;101894.22;5097116;27;61839;-60
2021/09/01 04:00:24;;;;;;;;;26.50;22.50;;;;;16.09;67.50;101893.41;5078291;27;75662;-60
2021/09/01 04:02:49;;;;;;;;;26.25;24.00;;;;;16.10;67.15;101903.03;5097668;27;45311;-60
2021/09/01 04:05:14;;;;;;;;;26.00;23.00;;;;;16.12;67.07;101899.25;5079121;27;45331;-60
2021/09/01 04:07:40;;;;;;;;;23.00;20.75;;;;;16.14;67.33;101894.66;5097819;27;45315;-61
2021/09/01 04:10:05;;;;;;;;;25.00;20.25;;;;;16.15;67.07;101895.50;5096485;27;75590;-60
2021/09/01 04:12:31;;;;;;;;;30.25;24.25;;;;;16.15;67.01;101885.72;5097404;27;45181;-60
2021/09/01 04:14:56;;;;;;;;;26.25;22.75;;;;;16.16;67.17;101889.22;5097802;27;45186;-60
2021/09/01 04:17:22;;;;;;;;;30.00;22.00;;;;;16.16;66.76;101892.69;5097608;27;45334;-60
2021/09/01 04:19:47;;;;;;;;;24.75;20.75;;;;;16.16;67.12;101892.69;5097391;27;45819;-60
2021/09/01 04:22:12;;;;;;;;;21.50;20.25;;;;;16.19;66.80;101888.09;5053851;27;1214279;-60
2021/09/01 04:24:38;;;;;;;;;28.50;24.00;;;;;16.16;66.73;101886.56;5098103;27;58189;-59
2021/09/01 04:27:03;;;;;;;;;27.50;22.25;;;;;16.15;66.70;101883.06;5097705;27;66584;-60
2021/09/01 04:29:29;;;;;;;;;21.75;20.00;;;;;16.12;66.67;101886.00;5098322;27;46318;-60
2021/09/01 04:31:54;;;;;;;;;27.75;22.25;;;;;16.13;66.88;101885.03;5097701;27;60084;-60
2021/09/01 04:34:19;;;;;;;;;28.00;23.50;;;;;16.15;66.89;101876.94;5098377;27;45266;-60
2021/09/01 04:36:45;;;;;;;;;22.75;19.75;;;;;16.15;66.84;101876.94;5097624;27;61783;-60
2021/09/01 04:39:10;;;;;;;;;28.00;23.25;;;;;16.16;66.83;101876.78;5097174;27;72431;-60
2021/09/01 04:41:36;;;;;;;;;25.25;22.00;;;;;16.19;66.82;101882.78;5097248;27;71221;-60
2021/09/01 04:44:01;;;;;;;;;24.25;21.50;;;;;16.19;66.75;101888.09;5097448;27;69295;-60
2021/09/01 04:46:27;;;;;;;;;28.00;22.50;;;;;16.20;67.01;101895.06;5098274;27;45310;-60
2021/09/01 04:48:52;;;;;;;;;26.75;21.50;;;;;16.21;66.87;101891.44;5098105;27;45356;-60
2021/09/01 04:51:18;;;;;;;;;24.75;24.00;;;;;16.20;66.74;101895.91;5095969;27;68969;-60
2021/09/01 04:53:44;;;;;;;;;23.75;19.25;;;;;16.23;66.82;101902.75;5079366;27;45362;-61
2021/09/01 04:56:09;;;;;;;;;24.75;21.25;;;;;16.24;66.54;101907.06;5097696;27;49728;-60
2021/09/01 04:58:34;;;;;;;;;24.00;21.25;;;;;16.24;66.75;101902.59;5097620;27;55572;-60
2021/09/01 05:01:00;;;;;;;;;22.25;20.25;;;;;16.24;66.60;101905.25;5079653;27;45328;-60
2021/09/01 05:03:25;;;;;;;;;25.75;21.00;;;;;16.25;66.83;101891.00;5097174;27;65398;-59
2021/09/01 05:05:51;;;;;;;;;25.00;20.00;;;;;16.26;66.55;101905.94;5097883;27;45231;-60
2021/09/01 05:08:16;;;;;;;;;21.25;18.75;;;;;16.27;66.56;101912.09;5096644;27;75548;-60
2021/09/01 05:10:41;;;;;;;;;28.00;20.67;;;;;16.26;66.54;101900.66;5096858;27;63280;-60
2021/09/01 05:13:08;;;;;;;;;25.50;22.00;;;;;16.26;66.64;101898.00;5078622;27;68133;-60
2021/09/01 05:15:33;;;;;;;;;27.00;23.00;;;;;16.29;66.45;101899.53;5097827;27;45290;-59
2021/09/01 05:17:58;;;;;;;;;32.00;27.50;;;;;16.31;66.28;101902.91;5078153;27;71995;-61
2021/09/01 05:20:24;;;;;;;;;33.25;27.25;;;;;16.32;66.21;101899.25;5096587;27;70531;-61
2021/09/01 05:22:49;;;;;;;;;38.75;31.00;;;;;16.32;66.13;101893.97;5097596;27;45465;-60
2021/09/01 05:25:16;;;;;;;;;35.00;31.25;;;;;16.31;66.38;101897.59;5079428;27;45615;-60
2021/09/01 05:27:43;;;;;;;;;46.50;37.50;;;;;16.31;66.29;101902.91;5097292;27;46956;-60
2021/09/01 05:30:12;;;;;;;;;44.75;36.00;;;;;16.28;66.34;101906.66;5097487;27;45286;-60
2021/09/01 05:32:38;;;;;;;;;40.75;33.50;;;;;16.27;66.12;101906.81;5097546;27;45381;-60
2021/09/01 05:35:05;;;;;;;;;37.75;31.75;;;;;16.26;66.30;101905.94;5097537;27;45320;-60
2021/09/01 05:37:30;;;;;;;;;39.25;31.50;;;;;16.25;66.18;101911.41;5078828;27;47053;-60
2021/09/01 05:39:58;;;;;;;;;44.75;36.75;;;;;16.23;66.11;101911.53;5096838;27;52819;-60
2021/09/01 05:42:24;;;;;;;;;40.50;34.00;;;;;16.23;66.14;101910.72;5078996;27;45378;-60
2021/09/01 05:44:50;;;;;;;;;38.00;30.00;;;;;16.22;66.13;101909.84;5097373;27;45306;-60
2021/09/01 05:47:16;;;;;;;;;28.25;23.75;;;;;16.23;66.07;101929.28;5078844;27;46508;-60
2021/09/01 05:49:42;;;;;;;;;26.75;24.00;;;;;16.23;65.94;101926.63;5096708;27;50748;-60
2021/09/01 05:52:08;;;;;;;;;27.00;23.25;;;;;16.24;66.18;101937.06;5097119;27;45410;-59
2021/09/01 05:54:33;;;;;;;;;21.50;18.75;;;;;16.27;65.83;101923.53;5097168;27;45416;-59
2021/09/01 05:57:09;;;;;;;;;22.75;21.00;;;;;16.29;65.90;101931.38;5096571;27;45387;-59
2021/09/01 05:59:55;;;;;;;;;23.75;21.50;;;;;16.31;65.82;101938.19;5097077;27;45960;-60
2021/09/01 06:02:30;;;;;;;;;27.25;22.25;;;;;16.35;65.99;101936.13;5078756;27;45407;-60
2021/09/01 06:04:56;;;;;;;;;23.00;16.25;;;;;16.39;65.86;101931.34;5096922;27;45269;-63
2021/09/01 06:07:22;;;;;;;;;21.25;17.50;;;;;16.41;65.76;101932.91;5078168;27;57309;-60
2021/09/01 06:09:47;;;;;;;;;20.25;20.25;;;;;16.46;65.67;101927.16;5077644;27;72063;-59
2021/09/01 06:12:18;;;;;;;;;22.75;21.75;;;;;16.46;65.35;101928.00;5078514;27;45745;-59
2021/09/01 06:14:44;;;;;;;;;22.25;18.50;;;;;16.46;65.44;101928.00;5078586;27;45540;-59
2021/09/01 06:17:09;;;;;;;;;22.75;19.75;;;;;16.49;65.30;101932.19;5096406;27;47198;-60
2021/09/01 06:19:35;;;;;;;;;26.50;24.00;;;;;16.52;65.26;101933.72;5096167;27;59931;-60
2021/09/01 06:22:00;;;;;;;;;23.50;21.50;;;;;16.55;65.38;101928.13;5096472;27;45348;-60
2021/09/01 06:24:25;;;;;;;;;34.75;29.50;;;;;16.57;65.35;101924.38;5077853;27;55796;-59
2021/09/01 06:26:51;;;;;;;;;49.00;37.25;;;;;16.61;65.24;101925.75;5077417;27;72784;-60
2021/09/01 06:29:16;;;;;;;;;49.25;39.00;;;;;16.63;65.39;101916.81;5095601;27;70155;-60
2021/09/01 06:31:42;;;;;;;;;50.75;38.50;;;;;16.63;65.17;101922.13;5095702;27;64284;-59
2021/09/01 06:34:07;;;;;;;;;54.00;41.00;;;;;16.64;65.09;101926.47;5095820;27;45425;-60
2021/09/01 06:36:32;;;;;;;;;52.00;40.00;;;;;16.66;65.20;101924.50;5095610;27;68974;-60
2021/09/01 06:38:58;;;;;;;;;58.75;45.00;;;;;16.69;65.31;101926.88;5095356;27;69482;-59
2021/09/01 06:41:23;;;;;;;;;50.25;40.75;;;;;16.70;65.31;101920.56;5095472;27;69343;-60
2021/09/01 06:43:48;;;;;;;;;51.25;38.50;;;;;16.73;65.36;101913.16;5096356;27;45529;-61
2021/09/01 06:46:14;;;;;;;;;53.75;41.75;;;;;16.76;65.20;101912.88;5095498;27;66326;-60
2021/09/01 06:48:39;;;;;;;;;52.25;41.75;;;;;16.74;65.07;101914.00;5095382;27;68816;-59
2021/09/01 06:51:05;;;;;;;;;53.50;41.00;;;;;16.72;65.29;101916.81;5095288;27;68177;-60
2021/09/01 06:53:30;;;;;;;;;57.25;44.50;;;;;16.73;65.27;101907.84;5095918;27;53445;-60
2021/09/01 06:55:55;;;;;;;;;62.25;46.25;;;;;16.72;65.07;101911.50;5095507;27;61830;-59
2021/09/01 06:58:21;;;;;;;;;63.00;45.50;;;;;16.72;65.06;101914.16;5095643;27;58404;-59
2021/09/01 07:00:46;;;;;;;;;61.00;46.25;;;;;16.72;65.33;101905.31;5095439;27;59799;-60
2021/09/01 07:03:11;;;;;;;;;57.25;44.00;;;;;16.72;65.22;101911.50;5096291;27;45397;-60
2021/09/01 07:05:37;;;;;;;;;62.00;45.25;;;;;16.73;65.04;101918.47;5095814;27;45378;-60
2021/09/01 07:08:22;;;;;;;;;62.25;47.50;;;;;16.76;65.21;101917.34;5095842;27;48233;-60
2021/09/01 07:10:47;;;;;;;;;60.00;47.25;;;;;16.81;65.16;101912.44;5096264;27;45375;-60
2021/09/01 07:13:13;;;;;;;;;56.00;43.00;;;;;16.86;64.99;101927.94;5095907;27;45579;-60
2021/09/01 07:15:38;;;;;;;;;56.75;43.25;;;;;16.89;64.95;101919.72;5097769;27;46086;-60
2021/09/01 07:18:04;;;;;;;;;55.75;43.00;;;;;16.92;64.77;101916.75;5080982;27;45340;-59
2021/09/01 07:20:29;;;;;;;;;59.25;41.50;;;;;16.98;64.71;101910.06;5098586;27;59643;-60
2021/09/01 07:22:55;;;;;;;;;51.50;38.25;;;;;17.00;64.63;101908.09;5098404;27;67768;-59
2021/09/01 07:25:20;;;;;;;;;45.50;37.00;;;;;17.06;64.51;101908.34;5099227;27;45286;-59
2021/09/01 07:27:45;;;;;;;;;35.75;29.00;;;;;17.10;64.09;101902.75;5099305;27;45256;-60
2021/09/01 07:30:11;;;;;;;;;33.25;27.00;;;;;17.16;63.99;101907.47;5080252;27;63195;-60
2021/09/01 07:32:36;;;;;;;;;32.25;26.75;;;;;17.22;63.95;101912.22;5097983;27;45607;-60
2021/09/01 07:35:02;;;;;;;;;21.00;20.00;;;;;17.28;63.49;101906.31;5098416;27;67562;-60
2021/09/01 07:37:27;;;;;;;;;24.50;19.25;;;;;17.30;63.39;101914.13;5094658;27;45345;-60
2021/09/01 07:39:53;;;;;;;;;25.75;15.75;;;;;17.34;63.30;101907.53;5078139;27;45751;-60
2021/09/01 07:42:18;;;;;;;;;22.25;20.25;;;;;17.38;62.75;101905.44;5083689;27;69419;-60
2021/09/01 07:44:43;;;;;;;;;23.25;20.25;;;;;17.41;63.05;101910.44;5080925;27;46189;-60
2021/09/01 07:47:09;;;;;;;;;19.75;17.00;;;;;17.46;62.91;101908.19;5081386;27;45426;-60
2021/09/01 07:49:34;;;;;;;;;22.00;17.50;;;;;17.52;62.64;101899.59;5084149;27;45662;-61
2021/09/01 07:52:00;;;;;;;;;21.25;15.75;;;;;17.57;62.43;101909.81;5079703;27;45633;-60
2021/09/01 07:54:25;;;;;;;;;22.25;17.00;;;;;17.62;62.40;101915.50;5079457;27;45323;-60
2021/09/01 07:56:51;;;;;;;;;23.00;16.50;;;;;17.68;62.24;101908.75;5078318;27;71425;-59
2021/09/01 07:59:16;;;;;;;;;20.50;18.00;;;;;17.72;62.10;101910.97;5077228;27;57899;-60
2021/09/01 08:01:41;;;;;;;;;17.25;17.25;;;;;17.77;61.77;101911.34;5093236;27;70121;-60
2021/09/01 08:04:07;;;;;;;;;23.25;17.25;;;;;17.82;61.70;101910.91;5084258;27;74538;-60
2021/09/01 08:06:32;;;;;;;;;16.50;15.50;;;;;17.89;61.63;101909.31;5083301;27;61854;-60
2021/09/01 08:08:58;;;;;;;;;17.75;16.50;;;;;17.97;61.55;101910.41;5092112;27;68287;-60
2021/09/01 08:11:24;;;;;;;;;16.50;15.00;;;;;18.04;61.36;101903.50;5091872;27;45596;-60
2021/09/01 08:13:49;;;;;;;;;17.00;15.50;;;;;18.07;60.88;101911.16;5089857;27;46376;-60
2021/09/01 08:16:14;;;;;;;;;16.00;14.50;;;;;18.13;60.96;101907.06;5091352;27;73193;-60
2021/09/01 08:18:40;;;;;;;;;21.00;16.75;;;;;18.18;60.72;101920.75;5091513;27;67763;-60
2021/09/01 08:21:05;;;;;;;;;17.00;14.50;;;;;18.22;60.65;101904.31;5089894;27;65142;-59
2021/09/01 08:23:31;;;;;;;;;19.50;15.75;;;;;18.30;60.58;101908.06;5089749;27;45501;-60
2021/09/01 08:25:56;;;;;;;;;19.00;15.25;;;;;18.40;60.42;101908.81;5089199;27;58985;-59
2021/09/01 08:28:21;;;;;;;;;15.50;14.50;;;;;18.53;60.14;101906.59;5090756;27;69351;-61
2021/09/01 08:30:47;;;;;;;;;17.00;15.25;;;;;18.71;59.67;101904.88;5091092;27;70334;-59
2021/09/01 08:33:12;;;;;;;;;23.25;18.00;;;;;18.86;59.83;101905.94;5094229;27;46176;-61
2021/09/01 08:35:37;;;;;;;;;18.25;17.25;;;;;19.01;58.59;101910.72;5090646;27;69255;-60
2021/09/01 08:38:03;;;;;;;;;20.75;17.25;;;;;19.12;58.28;101907.78;5095391;27;45559;-60
2021/09/01 08:40:29;;;;;;;;;14.25;14.25;;;;;19.21;58.27;101913.97;5092601;27;45493;-60
2021/09/01 08:42:54;;;;;;;;;17.00;16.00;;;;;19.26;58.33;101917.84;5094983;27;51632;-59
2021/09/01 08:45:20;;;;;;;;;16.75;16.00;;;;;19.31;57.46;101921.88;5093767;27;53867;-60
2021/09/01 08:47:45;;;;;;;;;17.00;14.00;;;;;19.34;57.47;101918.88;5087455;27;66341;-60
2021/09/01 08:50:11;;;;;;;;;18.50;15.75;;;;;19.37;57.78;101919.38;5074548;27;45558;-60
2021/09/01 08:52:37;;;;;;;;;15.25;12.75;;;;;19.39;57.24;101925.38;5093062;27;45197;-60
2021/09/01 08:55:13;;;;;;;;;17.25;14.75;;;;;19.37;57.17;101924.72;5092076;27;46099;-60
2021/09/01 08:57:38;;;;;;;;;19.50;16.25;;;;;19.39;57.13;101936.06;5094076;27;45539;-60
2021/09/01 09:00:04;;;;;;;;;13.50;12.50;;;;;19.39;56.87;101928.06;5092704;27;45441;-60
2021/09/01 09:02:30;;;;;;;;;15.75;14.00;;;;;19.40;57.21;101928.88;5088471;27;45514;-60
2021/09/01 09:04:56;;;;;;;;;18.00;16.25;;;;;19.42;56.86;101933.06;5086994;27;54949;-60
2021/09/01 09:07:24;;;;;;;;;16.75;14.50;;;;;19.42;57.17;101938.41;5085751;27;45403;-61
2021/09/01 09:09:50;;;;;;;;;15.25;12.50;;;;;19.48;57.19;101928.09;5088271;27;46735;-59
2021/09/01 09:12:15;;;;;;;;;16.75;13.75;;;;;19.49;57.26;101937.75;5088796;27;45876;-61
2021/09/01 09:14:46;;;;;;;;;14.50;13.50;;;;;19.51;57.36;101943.75;5067146;27;45555;-60
2021/09/01 09:17:13;;;;;;;;;17.25;14.75;;;;;19.54;57.25;101940.78;5088985;27;45577;-59
2021/09/01 09:19:52;;;;;;;;;21.00;17.50;;;;;19.58;56.74;101932.28;5087651;27;45307;-60
2021/09/01 09:22:31;;;;;;;;;20.50;17.00;;;;;19.63;56.98;101918.47;5089208;27;46247;-60
2021/09/01 09:25:18;;;;;;;;;18.50;16.25;;;;;19.72;56.92;101917.50;5086120;27;45840;-60
2021/09/01 09:27:50;;;;;;;;;21.50;16.00;;;;;19.83;56.74;101913.69;5066514;27;45321;-60
2021/09/01 09:30:36;;;;;;;;;17.25;14.00;;;;;19.94;56.43;101915.25;5085481;27;45195;-60
2021/09/01 09:33:13;;;;;;;;;20.50;17.00;;;;;20.01;55.84;101918.06;5085562;27;47244;-60
2021/09/01 09:35:47;;;;;;;;;19.00;16.50;;;;;20.05;55.68;101921.25;5081029;27;45977;-60
2021/09/01 09:38:13;;;;;;;;;18.00;17.00;;;;;20.08;55.82;101926.28;5082049;27;45364;-60
2021/09/01 09:40:39;;;;;;;;;17.75;16.25;;;;;20.09;55.30;101920.75;5065042;27;45400;-58
2021/09/01 09:43:18;;;;;;;;;15.75;15.75;;;;;20.11;55.37;101929.44;5081450;27;75646;-60
2021/09/01 09:45:44;;;;;;;;;20.25;16.00;;;;;20.14;55.16;101914.91;5078167;27;45866;-61
2021/09/01 09:48:09;;;;;;;;;17.25;14.50;;;;;20.23;55.61;101905.91;5077159;27;45488;-60
2021/09/01 09:50:35;;;;;;;;;17.75;16.50;;;;;20.38;55.21;101906.09;5084562;27;65716;-61
2021/09/01 09:53:00;;;;;;;;;16.75;14.50;;;;;20.54;55.13;101905.25;5088688;27;68436;-60
2021/09/01 09:55:25;;;;;;;;;19.00;15.50;;;;;20.69;54.76;101893.84;5071601;27;57010;-61
2021/09/01 09:57:52;;;;;;;;;22.75;18.25;;;;;20.79;53.83;101902.53;5089987;27;45497;-60
2021/09/01 10:00:18;;;;;;;;;18.50;16.50;;;;;20.90;54.10;101891.50;5056640;27;46509;-60
2021/09/01 10:02:44;;;;;;;;;22.00;17.50;;;;;21.05;53.31;101893.47;5089271;27;45460;-60
2021/09/01 10:05:11;;;;;;;;;15.75;14.00;;;;;21.25;52.74;101895.72;5087855;27;46149;-60
2021/09/01 10:07:36;;;;;;;;;20.00;17.25;;;;;21.44;52.73;101892.63;5089864;27;45461;-60
2021/09/01 10:10:02;;;;;;;;;19.25;14.00;;;;;21.67;52.37;101902.56;5090535;27;70480;-61
2021/09/01 10:12:27;;;;;;;;;17.00;15.00;;;;;21.89;52.13;101897.38;5091590;27;46213;-60
2021/09/01 10:14:53;;;;;;;;;15.50;12.00;;;;;22.09;51.25;101901.25;5089165;27;66200;-60
2021/09/01 10:17:18;;;;;;;;;16.25;13.75;;;;;22.28;50.90;101900.94;5069902;27;64550;-61
2021/09/01 10:19:44;;;;;;;;;16.50;14.00;;;;;22.41;50.71;101895.81;5053008;27;66632;-61
2021/09/01 10:22:09;;;;;;;;;14.50;14.50;;;;;22.59;50.61;101892.81;5066355;28;45969;-59
2021/09/01 10:24:38;;;;;;;;;20.00;13.50;;;;;22.80;49.48;101888.56;5059319;27;51476;-61
2021/09/01 10:27:09;;;;;;;;;16.75;15.25;;;;;22.95;49.45;101885.91;5065329;28;45495;-60
2021/09/01 10:29:50;;;;;;;;;15.75;14.25;;;;;23.14;48.52;101892.53;5064888;28;45593;-60
2021/09/01 10:32:29;;;;;;;;;10.75;10.75;;;;;23.34;48.25;101900.84;5068002;28;46303;-61
2021/09/01 10:35:20;;;;;;;;;14.00;13.00;;;;;23.61;48.25;101897.63;5064932;28;45277;-60
2021/09/01 10:37:55;;;;;;;;;11.25;10.75;;;;;23.82;47.44;101896.81;5062712;27;45597;-61
2021/09/01 10:40:20;;;;;;;;;14.25;14.25;;;;;24.00;46.70;101897.25;5066536;27;45421;-60
2021/09/01 10:42:46;;;;;;;;;16.00;12.00;;;;;24.15;45.51;101888.25;5061901;27;45321;-60
2021/09/01 10:45:15;;;;;;;;;13.00;12.00;;;;;24.24;46.06;101879.03;5062846;27;45273;-60
2021/09/01 10:47:50;;;;;;;;;14.50;13.50;;;;;24.36;46.01;101890.09;5067185;28;45302;-61
2021/09/01 10:50:28;;;;;;;;;15.00;13.75;;;;;24.51;45.25;101873.03;5071556;28;45439;-61
2021/09/01 10:53:03;;;;;;;;;14.00;14.00;;;;;24.64;44.79;101862.38;5070950;28;45495;-60
2021/09/01 10:55:29;;;;;;;;;15.00;14.25;;;;;24.76;44.49;101854.59;5072866;28;46015;-60
2021/09/01 10:58:13;;;;;;;;;16.00;14.00;;;;;24.89;44.62;101865.44;5063187;27;45453;-61
2021/09/01 11:00:39;;;;;;;;;15.00;13.50;;;;;24.99;44.09;101861.53;5062612;27;45394;-60
2021/09/01 11:03:04;;;;;;;;;12.00;12.00;;;;;25.01;43.24;101854.91;5061087;28;45521;-60
2021/09/01 11:05:30;;;;;;;;;15.00;14.25;;;;;25.08;43.51;101856.81;5059246;28;50992;-61
2021/09/01 11:07:56;;;;;;;;;21.00;16.75;;;;;25.16;43.09;101854.78;5059287;28;45355;-60